sensor_id;sensor_type;location;lat;lon;timestamp;temperature;humidity
12015;DHT22;6066;48.138;16.402;2022-11-20T00:00:03;1.10;99.90
12015;DHT22;6066;48.138;16.402;2022-11-20T00:02:31;1.10;99.90
12015;DHT22;6066;48.138;16.402;2022-11-20T00:04:58;1.10;99.90
12015;DHT22;6066;48.138;16.402;2022-11-20T00:07:24;1.10;99.90
12015;DHT22;6066;48.138;16.402;2022-11-20T00:09:51;1.10;99.90
12015;DHT22;6066;48.138;16.402;2022-11-20T00:12:18;1.10;99.90
12015;DHT22;6066;48.138;16.402;2022-11-20T00:14:44;1.10;99.90
12015;DHT22;6066;48.138;16.402;2022-11-20T00:17:11;1.10;99.90
12015;DHT22;6066;48.138;16.402;2022-11-20T00:19:39;1.10;99.90
12015;DHT22;6066;48.138;16.402;2022-11-20T00:22:05;1.10;99.90
12015;DHT22;6066;48.138;16.402;2022-11-20T00:24:32;1.10;99.90
12015;DHT22;6066;48.138;16.402;2022-11-20T00:26:59;1.10;99.90
12015;DHT22;6066;48.138;16.402;2022-11-20T00:29:25;1.00;99.90
12015;DHT22;6066;48.138;16.402;2022-11-20T00:31:52;1.00;99.90
12015;DHT22;6066;48.138;16.402;2022-11-20T00:34:19;1.00;99.90
12015;DHT22;6066;48.138;16.402;2022-11-20T00:36:47;1.00;99.90
12015;DHT22;6066;48.138;16.402;2022-11-20T00:39:13;1.00;99.90
12015;DHT22;6066;48.138;16.402;2022-11-20T00:41:40;1.00;99.90
12015;DHT22;6066;48.138;16.402;2022-11-20T00:44:07;1.00;99.90
12015;DHT22;6066;48.138;16.402;2022-11-20T00:46:33;0.90;99.90
12015;DHT22;6066;48.138;16.402;2022-11-20T00:49:00;0.90;99.90
12015;DHT22;6066;48.138;16.402;2022-11-20T00:51:27;1.00;99.90
12015;DHT22;6066;48.138;16.402;2022-11-20T00:53:56;1.00;99.90
12015;DHT22;6066;48.138;16.402;2022-11-20T00:56:22;1.00;99.90
12015;DHT22;6066;48.138;16.402;2022-11-20T00:58:49;1.00;99.90
12015;DHT22;6066;48.138;16.402;2022-11-20T01:01:17;1.00;99.90
12015;DHT22;6066;48.138;16.402;2022-11-20T01:03:44;1.00;99.90
12015;DHT22;6066;48.138;16.402;2022-11-20T01:06:12;1.10;99.90
12015;DHT22;6066;48.138;16.402;2022-11-20T01:08:39;1.10;99.90
12015;DHT22;6066;48.138;16.402;2022-11-20T01:11:08;1.10;99.90
12015;DHT22;6066;48.138;16.402;2022-11-20T01:13:35;1.10;99.90
12015;DHT22;6066;48.138;16.402;2022-11-20T01:16:06;1.20;99.90
12015;DHT22;6066;48.138;16.402;2022-11-20T01:18:33;1.20;99.90
12015;DHT22;6066;48.138;16.402;2022-11-20T01:21:00;1.20;99.90
12015;DHT22;6066;48.138;16.402;2022-11-20T01:23:29;1.20;99.90
12015;DHT22;6066;48.138;16.402;2022-11-20T01:25:56;1.20;99.90
12015;DHT22;6066;48.138;16.402;2022-11-20T01:28:24;1.20;99.90
12015;DHT22;6066;48.138;16.402;2022-11-20T01:30:51;1.20;99.90
12015;DHT22;6066;48.138;16.402;2022-11-20T01:33:17;1.20;99.90
12015;DHT22;6066;48.138;16.402;2022-11-20T01:35:44;1.20;99.90
12015;DHT22;6066;48.138;16.402;2022-11-20T01:38:11;1.10;99.90
12015;DHT22;6066;48.138;16.402;2022-11-20T01:40:37;1.10;99.90
12015;DHT22;6066;48.138;16.402;2022-11-20T01:43:09;1.00;99.90
12015;DHT22;6066;48.138;16.402;2022-11-20T01:45:56;1.00;99.90
12015;DHT22;6066;48.138;16.402;2022-11-20T01:48:25;1.00;99.90
12015;DHT22;6066;48.138;16.402;2022-11-20T01:50:52;0.90;99.90
12015;DHT22;6066;48.138;16.402;2022-11-20T01:53:21;0.90;99.90
12015;DHT22;6066;48.138;16.402;2022-11-20T01:55:51;0.90;99.90
12015;DHT22;6066;48.138;16.402;2022-11-20T01:58:18;0.90;99.90
12015;DHT22;6066;48.138;16.402;2022-11-20T02:00:46;0.90;99.90
12015;DHT22;6066;48.138;16.402;2022-11-20T02:03:15;0.90;99.90
12015;DHT22;6066;48.138;16.402;2022-11-20T02:05:43;0.90;99.90
12015;DHT22;6066;48.138;16.402;2022-11-20T02:08:11;0.90;99.90
12015;DHT22;6066;48.138;16.402;2022-11-20T02:10:38;0.90;99.90
12015;DHT22;6066;48.138;16.402;2022-11-20T02:13:04;0.90;99.90
12015;DHT22;6066;48.138;16.402;2022-11-20T02:15:49;0.90;99.90
12015;DHT22;6066;48.138;16.402;2022-11-20T02:18:19;0.90;99.90
12015;DHT22;6066;48.138;16.402;2022-11-20T02:20:46;0.90;99.90
12015;DHT22;6066;48.138;16.402;2022-11-20T02:23:15;0.90;99.90
12015;DHT22;6066;48.138;16.402;2022-11-20T02:25:44;1.00;99.90
12015;DHT22;6066;48.138;16.402;2022-11-20T02:28:12;1.00;99.90
12015;DHT22;6066;48.138;16.402;2022-11-20T02:30:39;1.00;99.90
12015;DHT22;6066;48.138;16.402;2022-11-20T02:33:05;1.00;99.90
12015;DHT22;6066;48.138;16.402;2022-11-20T02:35:40;1.00;99.90
12015;DHT22;6066;48.138;16.402;2022-11-20T02:38:06;1.00;99.90
12015;DHT22;6066;48.138;16.402;2022-11-20T02:40:33;1.00;99.90
12015;DHT22;6066;48.138;16.402;2022-11-20T02:43:01;1.00;99.90
12015;DHT22;6066;48.138;16.402;2022-11-20T02:45:28;1.00;99.90
12015;DHT22;6066;48.138;16.402;2022-11-20T02:47:55;1.00;99.90
12015;DHT22;6066;48.138;16.402;2022-11-20T02:50:21;1.00;99.90
12015;DHT22;6066;48.138;16.402;2022-11-20T02:52:48;1.00;99.90
12015;DHT22;6066;48.138;16.402;2022-11-20T02:55:15;1.00;99.90
12015;DHT22;6066;48.138;16.402;2022-11-20T02:57:41;1.00;99.90
12015;DHT22;6066;48.138;16.402;2022-11-20T03:00:10;1.00;99.90
12015;DHT22;6066;48.138;16.402;2022-11-20T03:02:37;1.00;99.90
12015;DHT22;6066;48.138;16.402;2022-11-20T03:05:04;1.00;99.90
12015;DHT22;6066;48.138;16.402;2022-11-20T03:07:30;1.00;99.90
12015;DHT22;6066;48.138;16.402;2022-11-20T03:09:57;1.00;99.90
12015;DHT22;6066;48.138;16.402;2022-11-20T03:12:24;1.00;99.90
12015;DHT22;6066;48.138;16.402;2022-11-20T03:14:53;1.00;99.90
12015;DHT22;6066;48.138;16.402;2022-11-20T03:17:21;1.00;99.90
12015;DHT22;6066;48.138;16.402;2022-11-20T03:19:48;1.00;99.90
12015;DHT22;6066;48.138;16.402;2022-11-20T03:22:15;0.90;99.90
12015;DHT22;6066;48.138;16.402;2022-11-20T03:24:41;0.80;99.90
12015;DHT22;6066;48.138;16.402;2022-11-20T03:27:08;0.80;99.90
12015;DHT22;6066;48.138;16.402;2022-11-20T03:29:35;0.80;99.90
12015;DHT22;6066;48.138;16.402;2022-11-20T03:32:01;0.80;99.90
12015;DHT22;6066;48.138;16.402;2022-11-20T03:34:29;0.80;99.90
12015;DHT22;6066;48.138;16.402;2022-11-20T03:36:56;0.80;99.90
12015;DHT22;6066;48.138;16.402;2022-11-20T03:39:23;0.80;99.90
12015;DHT22;6066;48.138;16.402;2022-11-20T03:41:49;0.80;99.90
12015;DHT22;6066;48.138;16.402;2022-11-20T03:44:16;0.80;99.90
12015;DHT22;6066;48.138;16.402;2022-11-20T03:46:43;0.80;99.90
12015;DHT22;6066;48.138;16.402;2022-11-20T03:49:09;0.80;99.90
12015;DHT22;6066;48.138;16.402;2022-11-20T03:51:37;0.80;99.90
12015;DHT22;6066;48.138;16.402;2022-11-20T03:54:05;0.90;99.90
12015;DHT22;6066;48.138;16.402;2022-11-20T03:56:33;0.90;99.90
12015;DHT22;6066;48.138;16.402;2022-11-20T03:59:00;0.90;99.90
12015;DHT22;6066;48.138;16.402;2022-11-20T04:01:27;0.90;99.90
12015;DHT22;6066;48.138;16.402;2022-11-20T04:03:55;1.00;99.90
12015;DHT22;6066;48.138;16.402;2022-11-20T04:06:22;0.90;99.90
12015;DHT22;6066;48.138;16.402;2022-11-20T04:08:50;0.90;99.90
12015;DHT22;6066;48.138;16.402;2022-11-20T04:11:18;0.90;99.90
12015;DHT22;6066;48.138;16.402;2022-11-20T04:13:45;0.90;99.90
12015;DHT22;6066;48.138;16.402;2022-11-20T04:16:12;0.90;99.90
12015;DHT22;6066;48.138;16.402;2022-11-20T04:18:39;0.90;99.90
12015;DHT22;6066;48.138;16.402;2022-11-20T04:21:06;0.90;99.90
12015;DHT22;6066;48.138;16.402;2022-11-20T04:23:33;0.90;99.90
12015;DHT22;6066;48.138;16.402;2022-11-20T04:26:04;0.90;99.90
12015;DHT22;6066;48.138;16.402;2022-11-20T04:28:31;0.90;99.90
12015;DHT22;6066;48.138;16.402;2022-11-20T04:31:01;0.90;99.90
12015;DHT22;6066;48.138;16.402;2022-11-20T04:33:28;0.90;99.90
12015;DHT22;6066;48.138;16.402;2022-11-20T04:35:54;0.90;99.90
12015;DHT22;6066;48.138;16.402;2022-11-20T04:38:21;0.90;99.90
12015;DHT22;6066;48.138;16.402;2022-11-20T04:40:48;0.90;99.90
12015;DHT22;6066;48.138;16.402;2022-11-20T04:43:17;0.90;99.90
12015;DHT22;6066;48.138;16.402;2022-11-20T04:45:49;1.00;99.90
12015;DHT22;6066;48.138;16.402;2022-11-20T04:48:16;1.00;99.90
12015;DHT22;6066;48.138;16.402;2022-11-20T04:50:43;0.90;99.90
12015;DHT22;6066;48.138;16.402;2022-11-20T04:53:09;1.00;99.90
12015;DHT22;6066;48.138;16.402;2022-11-20T04:55:36;0.90;99.90
12015;DHT22;6066;48.138;16.402;2022-11-20T04:58:03;0.90;99.90
12015;DHT22;6066;48.138;16.402;2022-11-20T05:00:31;0.90;99.90
12015;DHT22;6066;48.138;16.402;2022-11-20T05:02:57;0.90;99.90
12015;DHT22;6066;48.138;16.402;2022-11-20T05:05:24;0.90;99.90
12015;DHT22;6066;48.138;16.402;2022-11-20T05:07:51;0.90;99.90
12015;DHT22;6066;48.138;16.402;2022-11-20T05:10:17;0.90;99.90
12015;DHT22;6066;48.138;16.402;2022-11-20T05:12:47;0.80;99.90
12015;DHT22;6066;48.138;16.402;2022-11-20T05:15:13;0.80;99.90
12015;DHT22;6066;48.138;16.402;2022-11-20T05:17:41;0.80;99.90
12015;DHT22;6066;48.138;16.402;2022-11-20T05:20:12;0.80;99.90
12015;DHT22;6066;48.138;16.402;2022-11-20T05:22:39;0.80;99.90
12015;DHT22;6066;48.138;16.402;2022-11-20T05:25:06;0.80;99.90
12015;DHT22;6066;48.138;16.402;2022-11-20T05:27:33;0.80;99.90
12015;DHT22;6066;48.138;16.402;2022-11-20T05:29:59;0.80;99.90
12015;DHT22;6066;48.138;16.402;2022-11-20T05:32:26;0.80;99.90
12015;DHT22;6066;48.138;16.402;2022-11-20T05:34:54;0.80;99.90
12015;DHT22;6066;48.138;16.402;2022-11-20T05:37:21;0.80;99.90
12015;DHT22;6066;48.138;16.402;2022-11-20T05:39:47;0.80;99.90
12015;DHT22;6066;48.138;16.402;2022-11-20T05:42:14;0.80;99.90
12015;DHT22;6066;48.138;16.402;2022-11-20T05:44:56;0.80;99.90
12015;DHT22;6066;48.138;16.402;2022-11-20T05:47:23;0.90;99.90
12015;DHT22;6066;48.138;16.402;2022-11-20T05:49:49;0.90;99.90
12015;DHT22;6066;48.138;16.402;2022-11-20T05:52:17;0.90;99.90
12015;DHT22;6066;48.138;16.402;2022-11-20T05:54:44;0.90;99.90
12015;DHT22;6066;48.138;16.402;2022-11-20T05:57:11;1.00;99.90
12015;DHT22;6066;48.138;16.402;2022-11-20T05:59:37;1.00;99.90
12015;DHT22;6066;48.138;16.402;2022-11-20T06:02:04;1.00;99.90
12015;DHT22;6066;48.138;16.402;2022-11-20T06:04:31;1.00;99.90
12015;DHT22;6066;48.138;16.402;2022-11-20T06:06:57;1.00;99.90
12015;DHT22;6066;48.138;16.402;2022-11-20T06:09:25;1.00;99.90
12015;DHT22;6066;48.138;16.402;2022-11-20T06:11:52;1.00;99.90
12015;DHT22;6066;48.138;16.402;2022-11-20T06:14:19;1.00;99.90
12015;DHT22;6066;48.138;16.402;2022-11-20T06:16:45;1.00;99.90
12015;DHT22;6066;48.138;16.402;2022-11-20T06:19:12;1.10;99.90
12015;DHT22;6066;48.138;16.402;2022-11-20T06:21:39;1.10;99.90
12015;DHT22;6066;48.138;16.402;2022-11-20T06:24:05;1.10;99.90
12015;DHT22;6066;48.138;16.402;2022-11-20T06:26:33;1.10;99.90
12015;DHT22;6066;48.138;16.402;2022-11-20T06:29:00;1.00;99.90
12015;DHT22;6066;48.138;16.402;2022-11-20T06:31:27;1.00;99.90
12015;DHT22;6066;48.138;16.402;2022-11-20T06:33:58;1.00;99.90
12015;DHT22;6066;48.138;16.402;2022-11-20T06:36:24;1.00;99.90
12015;DHT22;6066;48.138;16.402;2022-11-20T06:38:51;1.00;99.90
12015;DHT22;6066;48.138;16.402;2022-11-20T06:41:18;0.90;99.90
12015;DHT22;6066;48.138;16.402;2022-11-20T06:43:47;0.90;99.90
12015;DHT22;6066;48.138;16.402;2022-11-20T06:46:14;0.90;99.90
12015;DHT22;6066;48.138;16.402;2022-11-20T06:48:43;0.90;99.90
12015;DHT22;6066;48.138;16.402;2022-11-20T06:51:09;0.90;99.90
12015;DHT22;6066;48.138;16.402;2022-11-20T06:53:36;0.90;99.90
12015;DHT22;6066;48.138;16.402;2022-11-20T06:56:03;0.90;99.90
12015;DHT22;6066;48.138;16.402;2022-11-20T06:58:31;0.90;99.90
12015;DHT22;6066;48.138;16.402;2022-11-20T07:01:00;0.80;99.90
12015;DHT22;6066;48.138;16.402;2022-11-20T07:03:26;0.80;99.90
12015;DHT22;6066;48.138;16.402;2022-11-20T07:05:54;0.80;99.90
12015;DHT22;6066;48.138;16.402;2022-11-20T07:08:21;0.80;99.90
12015;DHT22;6066;48.138;16.402;2022-11-20T07:10:47;0.80;99.90
12015;DHT22;6066;48.138;16.402;2022-11-20T07:13:14;0.80;99.90
12015;DHT22;6066;48.138;16.402;2022-11-20T07:15:40;0.80;99.90
12015;DHT22;6066;48.138;16.402;2022-11-20T07:18:09;0.80;99.90
12015;DHT22;6066;48.138;16.402;2022-11-20T07:20:36;0.80;99.90
12015;DHT22;6066;48.138;16.402;2022-11-20T07:23:03;0.80;99.90
12015;DHT22;6066;48.138;16.402;2022-11-20T07:25:29;0.90;99.90
12015;DHT22;6066;48.138;16.402;2022-11-20T07:27:56;0.90;99.90
12015;DHT22;6066;48.138;16.402;2022-11-20T07:30:23;0.90;99.90
12015;DHT22;6066;48.138;16.402;2022-11-20T07:32:50;0.90;99.90
12015;DHT22;6066;48.138;16.402;2022-11-20T07:35:19;0.90;99.90
12015;DHT22;6066;48.138;16.402;2022-11-20T07:37:45;0.90;99.90
12015;DHT22;6066;48.138;16.402;2022-11-20T07:40:12;0.90;99.90
12015;DHT22;6066;48.138;16.402;2022-11-20T07:42:46;0.90;99.90
12015;DHT22;6066;48.138;16.402;2022-11-20T07:45:13;1.00;99.90
12015;DHT22;6066;48.138;16.402;2022-11-20T07:47:40;0.90;99.90
12015;DHT22;6066;48.138;16.402;2022-11-20T07:50:07;0.90;99.90
12015;DHT22;6066;48.138;16.402;2022-11-20T07:52:35;0.90;99.90
12015;DHT22;6066;48.138;16.402;2022-11-20T07:55:02;0.90;99.90
12015;DHT22;6066;48.138;16.402;2022-11-20T07:57:28;1.00;99.90
12015;DHT22;6066;48.138;16.402;2022-11-20T07:59:55;1.00;99.90
12015;DHT22;6066;48.138;16.402;2022-11-20T08:02:22;1.00;99.90
12015;DHT22;6066;48.138;16.402;2022-11-20T08:04:48;1.00;99.90
12015;DHT22;6066;48.138;16.402;2022-11-20T08:07:15;1.00;99.90
12015;DHT22;6066;48.138;16.402;2022-11-20T08:09:43;1.00;99.90
12015;DHT22;6066;48.138;16.402;2022-11-20T08:12:10;1.10;99.90
12015;DHT22;6066;48.138;16.402;2022-11-20T08:15:00;1.00;99.90
12015;DHT22;6066;48.138;16.402;2022-11-20T08:17:27;1.00;99.90
12015;DHT22;6066;48.138;16.402;2022-11-20T08:19:53;1.10;99.90
12015;DHT22;6066;48.138;16.402;2022-11-20T08:22:20;1.10;99.90
12015;DHT22;6066;48.138;16.402;2022-11-20T08:24:48;1.20;99.90
12015;DHT22;6066;48.138;16.402;2022-11-20T08:27:14;1.20;99.90
12015;DHT22;6066;48.138;16.402;2022-11-20T08:29:41;1.20;99.90
12015;DHT22;6066;48.138;16.402;2022-11-20T08:32:08;1.20;99.90
12015;DHT22;6066;48.138;16.402;2022-11-20T08:34:34;1.20;99.90
12015;DHT22;6066;48.138;16.402;2022-11-20T08:37:01;1.20;99.90
12015;DHT22;6066;48.138;16.402;2022-11-20T08:39:28;1.30;99.90
12015;DHT22;6066;48.138;16.402;2022-11-20T08:41:56;1.30;99.90
12015;DHT22;6066;48.138;16.402;2022-11-20T08:44:23;1.30;99.90
12015;DHT22;6066;48.138;16.402;2022-11-20T08:46:50;1.30;99.90
12015;DHT22;6066;48.138;16.402;2022-11-20T08:49:17;1.40;99.90
12015;DHT22;6066;48.138;16.402;2022-11-20T08:51:44;1.40;99.90
12015;DHT22;6066;48.138;16.402;2022-11-20T08:54:12;1.50;99.90
12015;DHT22;6066;48.138;16.402;2022-11-20T08:56:38;1.60;99.90
12015;DHT22;6066;48.138;16.402;2022-11-20T08:59:07;1.60;99.90
12015;DHT22;6066;48.138;16.402;2022-11-20T09:01:33;1.60;99.90
12015;DHT22;6066;48.138;16.402;2022-11-20T09:04:00;1.60;99.90
12015;DHT22;6066;48.138;16.402;2022-11-20T09:06:26;1.60;99.90
12015;DHT22;6066;48.138;16.402;2022-11-20T09:08:53;1.70;99.90
12015;DHT22;6066;48.138;16.402;2022-11-20T09:11:20;1.70;99.90
12015;DHT22;6066;48.138;16.402;2022-11-20T09:13:47;1.80;99.90
12015;DHT22;6066;48.138;16.402;2022-11-20T09:16:15;1.90;99.90
12015;DHT22;6066;48.138;16.402;2022-11-20T09:18:41;1.90;99.90
12015;DHT22;6066;48.138;16.402;2022-11-20T09:21:09;2.00;99.90
12015;DHT22;6066;48.138;16.402;2022-11-20T09:23:36;2.10;99.90
12015;DHT22;6066;48.138;16.402;2022-11-20T09:26:03;2.30;99.90
12015;DHT22;6066;48.138;16.402;2022-11-20T09:28:30;2.50;99.90
12015;DHT22;6066;48.138;16.402;2022-11-20T09:30:57;2.60;99.90
12015;DHT22;6066;48.138;16.402;2022-11-20T09:33:25;2.60;99.90
12015;DHT22;6066;48.138;16.402;2022-11-20T09:35:52;2.60;99.90
12015;DHT22;6066;48.138;16.402;2022-11-20T09:38:19;2.50;99.90
12015;DHT22;6066;48.138;16.402;2022-11-20T09:40:47;2.60;99.90
12015;DHT22;6066;48.138;16.402;2022-11-20T09:43:18;2.60;99.90
12015;DHT22;6066;48.138;16.402;2022-11-20T09:45:55;2.70;99.90
12015;DHT22;6066;48.138;16.402;2022-11-20T09:48:29;2.80;99.90
12015;DHT22;6066;48.138;16.402;2022-11-20T09:51:01;2.80;99.90
12015;DHT22;6066;48.138;16.402;2022-11-20T09:53:33;2.80;99.90
12015;DHT22;6066;48.138;16.402;2022-11-20T09:56:03;2.90;99.90
12015;DHT22;6066;48.138;16.402;2022-11-20T09:58:31;2.80;99.90
12015;DHT22;6066;48.138;16.402;2022-11-20T10:01:00;2.70;99.90
12015;DHT22;6066;48.138;16.402;2022-11-20T10:03:33;2.70;99.90
12015;DHT22;6066;48.138;16.402;2022-11-20T10:06:03;2.70;99.90
12015;DHT22;6066;48.138;16.402;2022-11-20T10:08:32;2.70;99.90
12015;DHT22;6066;48.138;16.402;2022-11-20T10:11:04;2.70;99.90
12015;DHT22;6066;48.138;16.402;2022-11-20T10:13:35;2.70;99.90
12015;DHT22;6066;48.138;16.402;2022-11-20T10:16:09;2.80;99.90
12015;DHT22;6066;48.138;16.402;2022-11-20T10:18:42;2.80;99.90
12015;DHT22;6066;48.138;16.402;2022-11-20T10:21:12;2.80;99.90
12015;DHT22;6066;48.138;16.402;2022-11-20T10:26:38;2.90;99.90
12015;DHT22;6066;48.138;16.402;2022-11-20T10:29:09;2.90;99.90
12015;DHT22;6066;48.138;16.402;2022-11-20T10:31:38;3.00;99.90
12015;DHT22;6066;48.138;16.402;2022-11-20T10:34:07;3.00;99.90
12015;DHT22;6066;48.138;16.402;2022-11-20T10:36:40;3.00;99.90
12015;DHT22;6066;48.138;16.402;2022-11-20T10:39:11;3.00;99.90
12015;DHT22;6066;48.138;16.402;2022-11-20T10:41:41;3.00;99.90
12015;DHT22;6066;48.138;16.402;2022-11-20T10:44:10;3.00;99.90
12015;DHT22;6066;48.138;16.402;2022-11-20T10:46:38;3.10;99.90
12015;DHT22;6066;48.138;16.402;2022-11-20T10:49:12;3.10;99.90
12015;DHT22;6066;48.138;16.402;2022-11-20T10:51:40;3.20;99.90
12015;DHT22;6066;48.138;16.402;2022-11-20T10:54:12;3.30;99.90
12015;DHT22;6066;48.138;16.402;2022-11-20T10:56:41;3.30;99.90
12015;DHT22;6066;48.138;16.402;2022-11-20T10:59:24;3.30;99.90
12015;DHT22;6066;48.138;16.402;2022-11-20T11:01:53;3.40;99.90
12015;DHT22;6066;48.138;16.402;2022-11-20T11:04:32;3.40;99.90
12015;DHT22;6066;48.138;16.402;2022-11-20T11:07:03;3.50;99.90
12015;DHT22;6066;48.138;16.402;2022-11-20T11:09:32;3.60;99.90
12015;DHT22;6066;48.138;16.402;2022-11-20T11:11:59;3.60;99.90
12015;DHT22;6066;48.138;16.402;2022-11-20T11:14:26;3.60;99.90
12015;DHT22;6066;48.138;16.402;2022-11-20T11:16:54;3.70;99.90
12015;DHT22;6066;48.138;16.402;2022-11-20T11:19:21;3.80;99.90
12015;DHT22;6066;48.138;16.402;2022-11-20T11:21:50;3.90;99.90
12015;DHT22;6066;48.138;16.402;2022-11-20T11:24:20;4.00;99.90
12015;DHT22;6066;48.138;16.402;2022-11-20T11:26:51;4.20;99.90
12015;DHT22;6066;48.138;16.402;2022-11-20T11:29:18;4.40;99.90
12015;DHT22;6066;48.138;16.402;2022-11-20T11:31:45;4.60;99.90
12015;DHT22;6066;48.138;16.402;2022-11-20T11:34:12;4.60;99.90
12015;DHT22;6066;48.138;16.402;2022-11-20T11:36:39;4.60;99.90
12015;DHT22;6066;48.138;16.402;2022-11-20T11:39:15;4.50;99.90
12015;DHT22;6066;48.138;16.402;2022-11-20T11:41:43;4.50;99.90
12015;DHT22;6066;48.138;16.402;2022-11-20T11:44:14;4.40;99.90
12015;DHT22;6066;48.138;16.402;2022-11-20T11:46:59;4.40;99.90
12015;DHT22;6066;48.138;16.402;2022-11-20T11:49:26;4.40;99.90
12015;DHT22;6066;48.138;16.402;2022-11-20T11:51:58;4.50;99.90
12015;DHT22;6066;48.138;16.402;2022-11-20T11:54:29;4.70;99.90
12015;DHT22;6066;48.138;16.402;2022-11-20T11:56:58;4.90;99.90
12015;DHT22;6066;48.138;16.402;2022-11-20T11:59:27;5.00;99.90
12015;DHT22;6066;48.138;16.402;2022-11-20T12:01:56;5.10;99.90
12015;DHT22;6066;48.138;16.402;2022-11-20T12:04:31;5.30;99.90
12015;DHT22;6066;48.138;16.402;2022-11-20T12:07:08;5.40;99.90
12015;DHT22;6066;48.138;16.402;2022-11-20T12:09:41;5.50;99.90
12015;DHT22;6066;48.138;16.402;2022-11-20T12:12:10;5.60;99.90
12015;DHT22;6066;48.138;16.402;2022-11-20T12:14:40;5.60;99.90
12015;DHT22;6066;48.138;16.402;2022-11-20T12:17:12;5.50;99.90
12015;DHT22;6066;48.138;16.402;2022-11-20T12:19:39;5.60;99.90
12015;DHT22;6066;48.138;16.402;2022-11-20T12:22:10;5.50;99.90
12015;DHT22;6066;48.138;16.402;2022-11-20T12:24:47;5.40;99.90
12015;DHT22;6066;48.138;16.402;2022-11-20T12:30:08;5.30;99.90
12015;DHT22;6066;48.138;16.402;2022-11-20T12:32:49;5.30;99.90
12015;DHT22;6066;48.138;16.402;2022-11-20T12:35:35;5.30;99.90
12015;DHT22;6066;48.138;16.402;2022-11-20T12:38:08;5.30;99.90
12015;DHT22;6066;48.138;16.402;2022-11-20T12:40:44;5.30;99.90
12015;DHT22;6066;48.138;16.402;2022-11-20T12:43:16;5.30;99.90
12015;DHT22;6066;48.138;16.402;2022-11-20T12:46:12;5.30;99.90
12015;DHT22;6066;48.138;16.402;2022-11-20T12:48:52;5.30;99.90
12015;DHT22;6066;48.138;16.402;2022-11-20T12:51:36;5.30;99.90
12015;DHT22;6066;48.138;16.402;2022-11-20T12:54:14;5.20;99.90
12015;DHT22;6066;48.138;16.402;2022-11-20T12:56:55;5.20;99.90
12015;DHT22;6066;48.138;16.402;2022-11-20T12:59:28;5.20;99.90
12015;DHT22;6066;48.138;16.402;2022-11-20T13:02:01;5.20;99.90
12015;DHT22;6066;48.138;16.402;2022-11-20T13:04:41;5.30;99.90
12015;DHT22;6066;48.138;16.402;2022-11-20T13:07:13;5.30;99.90
12015;DHT22;6066;48.138;16.402;2022-11-20T13:09:42;5.30;99.90
12015;DHT22;6066;48.138;16.402;2022-11-20T13:12:13;5.40;99.90
12015;DHT22;6066;48.138;16.402;2022-11-20T13:14:42;5.40;99.90
12015;DHT22;6066;48.138;16.402;2022-11-20T13:17:19;5.50;99.90
12015;DHT22;6066;48.138;16.402;2022-11-20T13:19:49;5.50;99.90
12015;DHT22;6066;48.138;16.402;2022-11-20T13:22:24;5.60;99.90
12015;DHT22;6066;48.138;16.402;2022-11-20T13:24:51;5.70;99.90
12015;DHT22;6066;48.138;16.402;2022-11-20T13:27:22;5.70;99.90
12015;DHT22;6066;48.138;16.402;2022-11-20T13:30:00;5.60;99.90
12015;DHT22;6066;48.138;16.402;2022-11-20T13:32:28;5.50;99.90
12015;DHT22;6066;48.138;16.402;2022-11-20T13:34:59;5.50;99.90
12015;DHT22;6066;48.138;16.402;2022-11-20T13:37:28;5.50;99.90
12015;DHT22;6066;48.138;16.402;2022-11-20T13:40:05;5.40;99.90
12015;DHT22;6066;48.138;16.402;2022-11-20T13:42:34;5.40;99.90
12015;DHT22;6066;48.138;16.402;2022-11-20T13:45:08;5.40;99.90
12015;DHT22;6066;48.138;16.402;2022-11-20T13:47:37;5.40;99.90
12015;DHT22;6066;48.138;16.402;2022-11-20T13:50:08;5.30;99.90
12015;DHT22;6066;48.138;16.402;2022-11-20T13:52:39;5.30;99.90
12015;DHT22;6066;48.138;16.402;2022-11-20T13:55:15;5.30;99.90
12015;DHT22;6066;48.138;16.402;2022-11-20T13:57:54;5.30;99.90
12015;DHT22;6066;48.138;16.402;2022-11-20T14:00:26;5.30;99.90
12015;DHT22;6066;48.138;16.402;2022-11-20T14:03:08;5.30;99.90
12015;DHT22;6066;48.138;16.402;2022-11-20T14:05:39;5.30;99.90
12015;DHT22;6066;48.138;16.402;2022-11-20T14:08:12;5.30;99.90
12015;DHT22;6066;48.138;16.402;2022-11-20T14:10:40;5.20;99.90
12015;DHT22;6066;48.138;16.402;2022-11-20T14:13:16;5.30;99.90
12015;DHT22;6066;48.138;16.402;2022-11-20T14:15:45;5.20;99.90
12015;DHT22;6066;48.138;16.402;2022-11-20T14:18:13;5.20;99.90
12015;DHT22;6066;48.138;16.402;2022-11-20T14:20:40;5.10;99.90
12015;DHT22;6066;48.138;16.402;2022-11-20T14:23:09;5.10;99.90
12015;DHT22;6066;48.138;16.402;2022-11-20T14:25:45;5.10;99.90
12015;DHT22;6066;48.138;16.402;2022-11-20T14:28:20;5.10;99.90
12015;DHT22;6066;48.138;16.402;2022-11-20T14:30:51;5.10;99.90
12015;DHT22;6066;48.138;16.402;2022-11-20T14:33:22;5.10;99.90
12015;DHT22;6066;48.138;16.402;2022-11-20T14:35:51;5.10;99.90
12015;DHT22;6066;48.138;16.402;2022-11-20T14:38:20;5.10;99.90
12015;DHT22;6066;48.138;16.402;2022-11-20T14:40:51;5.10;99.90
12015;DHT22;6066;48.138;16.402;2022-11-20T14:43:25;5.00;99.90
12015;DHT22;6066;48.138;16.402;2022-11-20T14:45:57;5.00;99.90
12015;DHT22;6066;48.138;16.402;2022-11-20T14:48:28;5.00;99.90
12015;DHT22;6066;48.138;16.402;2022-11-20T14:50:57;4.90;99.90
12015;DHT22;6066;48.138;16.402;2022-11-20T14:53:25;4.90;99.90
12015;DHT22;6066;48.138;16.402;2022-11-20T14:55:57;4.80;99.90
12015;DHT22;6066;48.138;16.402;2022-11-20T14:58:26;4.80;99.90
12015;DHT22;6066;48.138;16.402;2022-11-20T15:00:54;4.70;99.90
12015;DHT22;6066;48.138;16.402;2022-11-20T15:03:30;4.60;99.90
12015;DHT22;6066;48.138;16.402;2022-11-20T15:05:58;4.60;99.90
12015;DHT22;6066;48.138;16.402;2022-11-20T15:08:25;4.50;99.90
12015;DHT22;6066;48.138;16.402;2022-11-20T15:10:55;4.40;99.90
12015;DHT22;6066;48.138;16.402;2022-11-20T15:13:26;4.20;99.90
12015;DHT22;6066;48.138;16.402;2022-11-20T15:15:57;4.10;99.90
12015;DHT22;6066;48.138;16.402;2022-11-20T15:18:26;3.90;99.90
12015;DHT22;6066;48.138;16.402;2022-11-20T15:20:55;3.80;99.90
12015;DHT22;6066;48.138;16.402;2022-11-20T15:23:22;3.70;99.90
12015;DHT22;6066;48.138;16.402;2022-11-20T15:25:50;3.50;99.90
12015;DHT22;6066;48.138;16.402;2022-11-20T15:28:18;3.40;99.90
12015;DHT22;6066;48.138;16.402;2022-11-20T15:30:48;3.30;99.90
12015;DHT22;6066;48.138;16.402;2022-11-20T15:33:16;3.10;99.90
12015;DHT22;6066;48.138;16.402;2022-11-20T15:35:46;3.10;99.90
12015;DHT22;6066;48.138;16.402;2022-11-20T15:38:14;3.00;99.90
12015;DHT22;6066;48.138;16.402;2022-11-20T15:40:41;2.90;99.90
12015;DHT22;6066;48.138;16.402;2022-11-20T15:43:09;2.90;99.90
12015;DHT22;6066;48.138;16.402;2022-11-20T15:45:38;2.80;99.90
12015;DHT22;6066;48.138;16.402;2022-11-20T15:48:10;2.80;99.90
12015;DHT22;6066;48.138;16.402;2022-11-20T15:50:38;2.80;99.90
12015;DHT22;6066;48.138;16.402;2022-11-20T15:53:08;2.80;99.90
12015;DHT22;6066;48.138;16.402;2022-11-20T15:55:35;2.80;99.90
12015;DHT22;6066;48.138;16.402;2022-11-20T15:58:02;2.70;99.90
12015;DHT22;6066;48.138;16.402;2022-11-20T16:00:29;2.70;99.90